createdAt,value
2023-01-26T00:02:41.432Z,29.65
2023-01-26T00:07:45.454Z,27.05
2023-01-26T00:12:46.968Z,29.02
2023-01-26T00:17:51.376Z,26.35
2023-01-26T00:22:52.769Z,27.93
2023-01-26T00:27:54.293Z,27.55
2023-01-26T00:32:57.494Z,27.50
2023-01-26T00:37:58.827Z,27.00
2023-01-26T00:43:00.679Z,25.70
2023-01-26T00:48:02.320Z,30.25
2023-01-26T00:53:03.901Z,27.17
2023-01-26T00:58:07.612Z,28.88
2023-01-26T01:03:08.942Z,24.98
2023-01-26T01:08:10.348Z,21.98
2023-01-26T01:13:11.770Z,19.77
2023-01-26T01:18:13.138Z,24.58
2023-01-26T01:23:14.438Z,19.90
2023-01-26T01:28:15.808Z,21.27
2023-01-26T01:33:17.625Z,20.98
2023-01-26T01:38:18.995Z,20.50
2023-01-26T01:43:20.620Z,20.25
2023-01-26T01:48:28.286Z,18.05
2023-01-26T01:53:34.506Z,16.45
2023-01-26T01:58:38.781Z,13.20
2023-01-26T02:03:41.924Z,11.20
2023-01-26T02:08:54.180Z,12.23
2023-01-26T02:14:33.523Z,10.73
2023-01-26T02:19:50.124Z,9.68
2023-01-26T02:24:54.948Z,10.85
2023-01-26T02:29:57.796Z,10.40
2023-01-26T02:35:20.723Z,8.77
2023-01-26T02:40:22.175Z,9.52
2023-01-26T02:45:25.069Z,9.55
2023-01-26T02:50:26.737Z,10.55
2023-01-26T02:55:30.763Z,7.38
2023-01-26T03:00:37.150Z,7.10
2023-01-26T03:05:38.657Z,7.15
2023-01-26T03:10:40.149Z,6.85
2023-01-26T03:15:52.461Z,7.72
2023-01-26T03:21:12.802Z,9.48
2023-01-26T03:26:32.651Z,8.93
2023-01-26T03:31:34.275Z,8.13
2023-01-26T03:36:37.348Z,6.47
2023-01-26T03:41:57.424Z,7.50
2023-01-26T03:47:17.918Z,8.73
2023-01-26T03:52:37.803Z,5.88
2023-01-26T03:57:39.197Z,5.57
2023-01-26T04:03:00.586Z,7.63
2023-01-26T04:08:22.401Z,5.38
2023-01-26T04:13:43.264Z,4.80
2023-01-26T04:19:03.097Z,5.97
2023-01-26T04:24:17.323Z,4.60
2023-01-26T04:29:18.821Z,3.50
2023-01-26T04:34:20.347Z,5.00
2023-01-26T04:39:21.678Z,4.28
2023-01-26T04:44:23.182Z,4.13
2023-01-26T04:49:24.576Z,5.13
2023-01-26T04:54:26.160Z,6.00
2023-01-26T04:59:28.030Z,5.75
2023-01-26T05:04:29.513Z,5.32
2023-01-26T05:09:31.042Z,5.82
2023-01-26T05:14:32.629Z,6.45
2023-01-26T05:19:34.017Z,5.75
2023-01-26T05:24:35.454Z,5.72
2023-01-26T05:29:36.857Z,7.60
2023-01-26T05:34:38.643Z,7.38
2023-01-26T05:39:40.087Z,6.80
2023-01-26T05:44:41.504Z,7.30
2023-01-26T05:49:43.585Z,5.07
2023-01-26T05:54:45.424Z,6.88
2023-01-26T05:59:47.354Z,4.90
2023-01-26T06:04:49.274Z,5.95
2023-01-26T06:09:51.032Z,6.40
2023-01-26T06:14:52.455Z,6.43
2023-01-26T06:19:54.085Z,8.63
2023-01-26T06:24:55.597Z,8.55
2023-01-26T06:29:57.051Z,8.02
2023-01-26T06:34:58.442Z,9.30
2023-01-26T06:39:59.783Z,9.23
2023-01-26T06:45:01.377Z,7.85
2023-01-26T06:50:02.858Z,8.70
2023-01-26T06:55:05.612Z,8.13
2023-01-26T07:00:07.838Z,7.20
2023-01-26T07:05:11.116Z,7.38
2023-01-26T07:10:13.582Z,6.57
2023-01-26T07:15:15.073Z,7.15
2023-01-26T07:20:16.630Z,7.03
2023-01-26T07:25:19.288Z,6.03
2023-01-26T07:30:20.750Z,6.57
2023-01-26T07:35:22.144Z,5.75
2023-01-26T07:40:23.577Z,7.10
2023-01-26T07:45:25.101Z,5.65
2023-01-26T07:50:26.907Z,6.13
2023-01-26T07:55:28.793Z,13.52
2023-01-26T08:00:30.264Z,11.80
2023-01-26T08:05:32.816Z,7.45
2023-01-26T08:10:34.333Z,9.00
2023-01-26T08:15:35.790Z,8.25
2023-01-26T08:20:37.144Z,7.95
2023-01-26T08:25:38.532Z,7.35
2023-01-26T08:30:40.168Z,8.80
2023-01-26T08:35:41.761Z,9.48
2023-01-26T08:40:43.185Z,8.85
2023-01-26T08:45:47.426Z,15.13
2023-01-26T08:50:48.884Z,8.87
2023-01-26T08:55:50.539Z,9.27
2023-01-26T09:00:52.163Z,7.97
2023-01-26T09:05:53.732Z,7.97
2023-01-26T09:10:55.354Z,8.32
2023-01-26T09:15:57.165Z,7.85
2023-01-26T09:21:06.730Z,9.07
2023-01-26T09:26:08.734Z,10.50
2023-01-26T09:31:11.873Z,9.40
2023-01-26T09:36:13.412Z,8.45
2023-01-26T09:41:21.313Z,9.07
2023-01-26T09:46:42.587Z,9.18
2023-01-26T09:51:53.400Z,8.82
2023-01-26T09:56:55.860Z,9.63
2023-01-26T10:02:01.819Z,8.80
2023-01-26T10:07:09.540Z,8.50
2023-01-26T10:12:22.862Z,8.45
2023-01-26T10:17:27.375Z,7.72
2023-01-26T10:22:36.043Z,6.95
2023-01-26T10:27:37.589Z,8.95
2023-01-26T10:32:41.471Z,8.15
2023-01-26T10:37:42.819Z,9.55
2023-01-26T10:42:56.057Z,9.10
2023-01-26T10:48:17.817Z,8.02
2023-01-26T10:53:30.494Z,8.63
2023-01-26T10:58:43.660Z,9.55
2023-01-26T11:04:05.957Z,8.30
2023-01-26T11:09:19.135Z,11.20
2023-01-26T11:14:20.889Z,10.10
2023-01-26T11:19:51.171Z,10.40
2023-01-26T11:24:58.329Z,8.70
2023-01-26T11:30:36.734Z,8.38
2023-01-26T11:35:57.232Z,8.40
2023-01-26T11:41:18.425Z,8.68
2023-01-26T11:46:46.298Z,8.40
2023-01-26T11:52:21.757Z,8.88
2023-01-26T11:57:41.232Z,9.40
2023-01-26T12:02:54.184Z,8.52
2023-01-26T12:08:14.439Z,10.18
2023-01-26T12:13:34.804Z,10.18
2023-01-26T12:18:55.765Z,11.82
2023-01-26T12:24:03.159Z,12.48
2023-01-26T12:29:28.031Z,11.10
2023-01-26T12:34:33.722Z,10.93
2023-01-26T12:39:44.784Z,12.90
2023-01-26T12:45:02.233Z,10.85
2023-01-26T12:50:22.976Z,9.23
2023-01-26T12:55:47.198Z,11.45
2023-01-26T13:00:58.342Z,10.60
2023-01-26T13:06:20.150Z,12.82
2023-01-26T13:11:41.814Z,11.75
2023-01-26T13:16:43.682Z,14.25
2023-01-26T13:21:45.276Z,12.60
2023-01-26T13:26:48.741Z,12.45
2023-01-26T13:31:57.489Z,12.52
2023-01-26T13:37:09.123Z,13.40
2023-01-26T13:42:23.109Z,15.20
2023-01-26T13:47:30.073Z,11.30
2023-01-26T13:52:31.558Z,12.95
2023-01-26T13:57:32.988Z,14.68
2023-01-26T14:02:36.364Z,11.52
2023-01-26T14:07:43.650Z,15.07
2023-01-26T14:12:56.598Z,12.00
2023-01-26T14:18:01.308Z,11.48
2023-01-26T14:23:13.764Z,12.43
2023-01-26T14:28:20.637Z,13.35
2023-01-26T14:33:24.397Z,13.60
2023-01-26T14:38:28.850Z,12.85
2023-01-26T14:43:30.383Z,14.68
2023-01-26T14:48:38.012Z,14.60
2023-01-26T14:53:39.450Z,13.50
2023-01-26T14:58:41.424Z,14.82
2023-01-26T15:03:42.874Z,18.52
2023-01-26T15:09:05.909Z,16.80
2023-01-26T15:14:23.904Z,18.20
2023-01-26T15:19:27.437Z,18.33
2023-01-26T15:24:28.874Z,15.88
2023-01-26T15:29:32.495Z,16.27
2023-01-26T15:34:38.359Z,14.70
2023-01-26T15:39:39.852Z,12.70
2023-01-26T15:44:41.740Z,15.95
2023-01-26T15:49:43.391Z,13.88
2023-01-26T15:54:45.406Z,15.13
2023-01-26T15:59:46.829Z,13.85
2023-01-26T16:04:48.464Z,15.43
2023-01-26T16:09:50.971Z,16.58
2023-01-26T16:14:52.703Z,14.13
2023-01-26T16:19:54.212Z,14.73
2023-01-26T16:24:55.582Z,15.98
2023-01-26T16:29:57.309Z,14.43
2023-01-26T16:34:58.836Z,16.73
2023-01-26T16:40:00.347Z,15.70
2023-01-26T16:45:01.724Z,14.52
2023-01-26T16:50:03.353Z,18.15
2023-01-26T16:55:05.203Z,17.48
2023-01-26T17:00:07.766Z,18.05
2023-01-26T17:05:17.937Z,16.98
2023-01-26T17:10:22.492Z,17.02
2023-01-26T17:15:28.166Z,16.33
2023-01-26T17:20:29.649Z,16.15
2023-01-26T17:25:31.022Z,15.80
2023-01-26T17:30:32.619Z,21.80
2023-01-26T17:35:34.313Z,19.52
2023-01-26T17:40:36.647Z,16.73
2023-01-26T17:45:38.113Z,20.08
2023-01-26T17:50:39.452Z,16.90
2023-01-26T17:55:41.304Z,17.05
2023-01-26T18:00:43.066Z,18.80
2023-01-26T18:05:54.577Z,18.10
2023-01-26T18:11:00.516Z,22.20
2023-01-26T18:16:02.235Z,18.92
2023-01-26T18:21:18.014Z,20.35
2023-01-26T18:26:21.720Z,19.55
2023-01-26T18:31:26.217Z,19.23
2023-01-26T18:36:28.462Z,16.00
2023-01-26T18:41:30.713Z,22.35
2023-01-26T18:46:32.507Z,20.98
2023-01-26T18:51:36.071Z,24.63
2023-01-26T18:56:37.535Z,20.75
2023-01-26T19:01:39.422Z,21.35
2023-01-26T19:06:40.751Z,19.83
2023-01-26T19:11:42.158Z,17.00
2023-01-26T19:16:47.498Z,19.52
2023-01-26T19:21:49.387Z,20.10
2023-01-26T19:26:50.801Z,19.63
2023-01-26T19:31:52.652Z,20.85
2023-01-26T19:36:54.169Z,18.58
2023-01-26T19:41:55.657Z,21.65
2023-01-26T19:46:57.081Z,21.48
2023-01-26T19:51:58.596Z,16.65
2023-01-26T19:56:59.877Z,17.70
2023-01-26T20:02:01.380Z,18.77
2023-01-26T20:07:05.139Z,21.90
2023-01-26T20:12:09.031Z,17.02
2023-01-26T20:17:10.333Z,19.15
2023-01-26T20:22:12.252Z,17.90
2023-01-26T20:27:13.590Z,19.42
2023-01-26T20:32:15.102Z,18.23
2023-01-26T20:37:16.514Z,19.00
2023-01-26T20:42:18.976Z,19.10
2023-01-26T20:47:22.552Z,15.18
2023-01-26T20:52:25.137Z,18.13
2023-01-26T20:57:26.525Z,18.17
2023-01-26T21:02:28.204Z,17.38
2023-01-26T21:07:29.603Z,14.30
2023-01-26T21:12:30.991Z,16.13
2023-01-26T21:17:32.556Z,17.73
2023-01-26T21:22:33.923Z,15.00
2023-01-26T21:27:35.324Z,16.58
2023-01-26T21:32:36.640Z,13.43
2023-01-26T21:37:38.104Z,14.15
2023-01-26T21:42:39.652Z,14.48
2023-01-26T21:47:40.983Z,14.85
2023-01-26T21:52:57.591Z,16.65
2023-01-26T21:58:17.429Z,14.60
2023-01-26T22:03:18.790Z,16.52
2023-01-26T22:08:20.133Z,16.20
2023-01-26T22:13:22.075Z,20.90
2023-01-26T22:18:23.444Z,15.98
2023-01-26T22:23:24.949Z,15.65
2023-01-26T22:28:26.369Z,14.38
2023-01-26T22:33:28.306Z,16.48
2023-01-26T22:38:31.295Z,16.25
2023-01-26T22:43:33.816Z,16.63
2023-01-26T22:48:36.198Z,13.82
2023-01-26T22:53:39.552Z,13.88
2023-01-26T22:58:55.797Z,16.17
2023-01-26T23:04:00.261Z,15.95
2023-01-26T23:09:04.507Z,12.32
2023-01-26T23:14:06.194Z,11.50
2023-01-26T23:19:07.729Z,14.35
2023-01-26T23:24:09.134Z,15.20
2023-01-26T23:29:10.703Z,14.75
2023-01-26T23:34:12.013Z,16.10
2023-01-26T23:39:13.389Z,14.88
2023-01-26T23:44:14.750Z,14.90
2023-01-26T23:49:16.311Z,14.40
2023-01-26T23:54:17.763Z,14.80
2023-01-26T23:59:19.309Z,14.05
